createdAt,value
2024-01-05T00:02:28.705Z,1.70
2024-01-05T00:04:56.915Z,1.65
2024-01-05T00:07:25.121Z,2.05
2024-01-05T00:09:53.135Z,2.22
2024-01-05T00:12:21.377Z,1.70
2024-01-05T00:14:49.849Z,2.13
2024-01-05T00:17:17.973Z,1.98
2024-01-05T00:19:47.418Z,2.78
2024-01-05T00:22:15.428Z,1.70
2024-01-05T00:24:43.543Z,1.85
2024-01-05T00:27:11.570Z,1.40
2024-01-05T00:29:40.001Z,2.50
2024-01-05T00:32:08.676Z,2.13
2024-01-05T00:34:37.343Z,1.60
2024-01-05T00:37:06.877Z,2.42
2024-01-05T00:39:34.975Z,1.65
2024-01-05T00:42:03.877Z,1.33
2024-01-05T00:44:31.982Z,2.25
2024-01-05T00:47:02.945Z,2.00
2024-01-05T00:49:31.182Z,1.80
2024-01-05T00:51:59.292Z,1.90
2024-01-05T00:54:29.182Z,1.42
2024-01-05T00:56:57.346Z,1.92
2024-01-05T00:59:25.387Z,1.85
2024-01-05T01:01:54.505Z,2.08
2024-01-05T01:04:22.920Z,1.90
2024-01-05T01:06:51.900Z,1.90
2024-01-05T01:09:20.032Z,2.03
2024-01-05T01:11:51.544Z,2.05
2024-01-05T01:14:19.725Z,1.83
2024-01-05T01:16:47.765Z,2.08
2024-01-05T01:19:15.940Z,1.80
2024-01-05T01:21:44.035Z,1.60
2024-01-05T01:24:12.012Z,1.85
2024-01-05T01:26:40.943Z,1.63
2024-01-05T01:29:10.758Z,2.70
2024-01-05T01:31:38.809Z,1.50
2024-01-05T01:34:06.972Z,1.83
2024-01-05T01:36:35.057Z,2.30
2024-01-05T01:39:05.943Z,1.50
2024-01-05T01:41:34.280Z,2.00
2024-01-05T01:44:02.367Z,1.95
2024-01-05T01:46:32.857Z,1.88
2024-01-05T01:49:01.014Z,2.20
2024-01-05T01:51:33.006Z,1.98
2024-01-05T01:54:01.112Z,2.13
2024-01-05T01:56:29.410Z,2.33
2024-01-05T01:58:57.489Z,1.73
2024-01-05T02:01:25.573Z,1.92
2024-01-05T02:03:55.531Z,1.98
2024-01-05T02:06:23.686Z,2.30
2024-01-05T02:08:52.430Z,2.10
2024-01-05T02:11:20.440Z,1.83
2024-01-05T02:13:49.410Z,1.35
2024-01-05T02:16:17.509Z,1.63
2024-01-05T02:18:52.382Z,1.70
2024-01-05T02:21:24.966Z,1.50
2024-01-05T02:23:54.789Z,1.90
2024-01-05T02:26:23.339Z,1.45
2024-01-05T02:28:51.363Z,1.70
2024-01-05T02:31:19.397Z,1.80
2024-01-05T02:33:47.592Z,1.83
2024-01-05T02:36:15.720Z,1.30
2024-01-05T02:38:43.794Z,2.22
2024-01-05T02:41:13.144Z,1.48
2024-01-05T02:43:41.189Z,2.13
2024-01-05T02:46:10.242Z,1.63
2024-01-05T02:48:38.434Z,2.40
2024-01-05T02:51:07.010Z,2.13
2024-01-05T02:53:35.226Z,2.05
2024-01-05T02:56:03.267Z,1.98
2024-01-05T02:58:32.636Z,2.00
2024-01-05T03:01:00.672Z,1.95
2024-01-05T03:03:28.768Z,2.15
2024-01-05T03:05:56.840Z,2.03
2024-01-05T03:08:24.812Z,2.28
2024-01-05T03:10:52.754Z,1.67
2024-01-05T03:13:20.740Z,1.90
2024-01-05T03:15:50.050Z,1.80
2024-01-05T03:18:18.185Z,1.80
2024-01-05T03:20:46.233Z,1.60
2024-01-05T03:23:15.853Z,1.92
2024-01-05T03:25:44.387Z,2.25
2024-01-05T03:28:13.594Z,2.13
2024-01-05T03:30:42.151Z,1.90
2024-01-05T03:33:12.159Z,1.98
2024-01-05T03:35:42.534Z,2.10
2024-01-05T03:38:10.527Z,2.15
2024-01-05T03:40:38.489Z,1.90
2024-01-05T03:43:06.484Z,1.98
2024-01-05T03:45:34.685Z,2.17
2024-01-05T03:48:02.879Z,1.75
2024-01-05T03:50:32.302Z,1.98
2024-01-05T03:53:00.286Z,2.08
2024-01-05T03:55:28.445Z,1.98
2024-01-05T03:57:56.422Z,2.10
2024-01-05T04:00:24.511Z,2.17
2024-01-05T04:02:52.606Z,2.03
2024-01-05T04:05:21.037Z,2.28
2024-01-05T04:07:50.385Z,2.00
2024-01-05T04:10:19.314Z,1.77
2024-01-05T04:12:49.566Z,1.60
2024-01-05T04:15:17.741Z,2.22
2024-01-05T04:17:45.787Z,1.38
2024-01-05T04:20:13.997Z,1.70
2024-01-05T04:22:41.995Z,1.60
2024-01-05T04:25:11.653Z,1.88
2024-01-05T04:27:40.458Z,1.70
2024-01-05T04:30:09.428Z,2.08
2024-01-05T04:32:37.604Z,1.80
2024-01-05T04:35:06.320Z,1.77
2024-01-05T04:37:34.293Z,1.95
2024-01-05T04:40:02.278Z,1.65
2024-01-05T04:42:31.755Z,1.90
2024-01-05T04:44:59.771Z,1.45
2024-01-05T04:47:28.092Z,1.63
2024-01-05T04:49:56.231Z,1.30
2024-01-05T04:52:24.284Z,1.65
2024-01-05T04:54:52.262Z,1.45
2024-01-05T04:57:20.286Z,1.20
2024-01-05T04:59:49.973Z,1.83
2024-01-05T05:02:17.951Z,1.30
2024-01-05T05:04:47.386Z,1.40
2024-01-05T05:07:16.889Z,1.48
2024-01-05T05:09:44.921Z,1.58
2024-01-05T05:12:13.167Z,1.27
2024-01-05T05:14:41.181Z,1.33
2024-01-05T05:17:10.519Z,1.30
2024-01-05T05:19:38.632Z,1.65
2024-01-05T05:22:07.458Z,1.20
2024-01-05T05:24:36.136Z,1.45
2024-01-05T05:27:04.177Z,1.40
2024-01-05T05:29:32.201Z,1.33
2024-01-05T05:32:00.200Z,1.00
2024-01-05T05:34:29.717Z,0.90
2024-01-05T05:36:57.812Z,1.10
2024-01-05T05:39:26.230Z,0.80
2024-01-05T05:41:54.275Z,1.60
2024-01-05T05:44:22.370Z,1.10
2024-01-05T05:46:50.377Z,0.98
2024-01-05T05:49:18.457Z,1.30
2024-01-05T05:51:48.301Z,1.20
2024-01-05T05:54:16.939Z,1.48
2024-01-05T05:56:44.946Z,1.25
2024-01-05T05:59:12.969Z,1.20
2024-01-05T06:01:41.063Z,1.00
2024-01-05T06:04:09.447Z,1.08
2024-01-05T06:06:38.005Z,1.30
2024-01-05T06:09:08.709Z,1.40
2024-01-05T06:11:36.748Z,1.13
2024-01-05T06:14:05.504Z,1.20
2024-01-05T06:16:33.538Z,1.58
2024-01-05T06:19:01.616Z,0.93
2024-01-05T06:21:29.801Z,1.30
2024-01-05T06:23:58.057Z,1.15
2024-01-05T06:26:27.410Z,1.42
2024-01-05T06:28:55.386Z,1.63
2024-01-05T06:31:24.257Z,1.08
2024-01-05T06:33:52.423Z,1.65
2024-01-05T06:36:20.831Z,1.65
2024-01-05T06:38:48.829Z,1.60
2024-01-05T06:41:16.823Z,1.05
2024-01-05T06:43:46.140Z,1.20
2024-01-05T06:46:14.164Z,1.15
2024-01-05T06:48:42.345Z,1.00
2024-01-05T06:51:10.512Z,1.38
2024-01-05T06:53:38.584Z,1.30
2024-01-05T06:56:09.671Z,1.25
2024-01-05T06:58:37.675Z,0.93
2024-01-05T07:01:07.680Z,1.30
2024-01-05T07:03:35.776Z,1.05
2024-01-05T07:06:04.201Z,1.40
2024-01-05T07:08:32.251Z,1.02
2024-01-05T07:11:00.275Z,1.45
2024-01-05T07:13:28.401Z,1.23
2024-01-05T07:15:56.497Z,1.20
2024-01-05T07:18:25.987Z,1.20
2024-01-05T07:20:54.186Z,1.05
2024-01-05T07:23:22.592Z,1.00
2024-01-05T07:25:50.570Z,1.38
2024-01-05T07:28:18.663Z,0.80
2024-01-05T07:30:46.696Z,1.20
2024-01-05T07:33:14.945Z,1.27
2024-01-05T07:35:44.816Z,1.40
2024-01-05T07:38:12.846Z,0.80
2024-01-05T07:40:40.843Z,0.70
2024-01-05T07:43:10.241Z,1.23
2024-01-05T07:45:38.281Z,0.60
2024-01-05T07:48:07.377Z,0.82
2024-01-05T07:50:35.955Z,0.70
2024-01-05T07:53:05.559Z,0.95
2024-01-05T07:55:33.657Z,0.70
2024-01-05T07:58:01.710Z,0.70
2024-01-05T08:00:29.735Z,0.70
2024-01-05T08:02:57.910Z,0.80
2024-01-05T08:05:26.051Z,0.50
2024-01-05T08:07:54.129Z,0.60
2024-01-05T08:10:25.399Z,0.47
2024-01-05T08:12:55.256Z,0.40
2024-01-05T08:15:23.356Z,0.60
2024-01-05T08:17:51.440Z,0.38
2024-01-05T08:20:19.478Z,0.50
2024-01-05T08:22:47.496Z,0.50
2024-01-05T08:25:15.699Z,0.40
2024-01-05T08:27:45.248Z,0.35
2024-01-05T08:30:14.483Z,0.65
2024-01-05T08:32:43.579Z,0.30
2024-01-05T08:35:11.959Z,0.68
2024-01-05T08:37:39.988Z,0.60
2024-01-05T08:40:09.259Z,0.45
2024-01-05T08:42:37.764Z,0.50
2024-01-05T08:45:08.068Z,0.70
2024-01-05T08:47:36.128Z,0.40
2024-01-05T08:50:04.326Z,0.63
2024-01-05T08:52:32.428Z,0.40
2024-01-05T08:55:00.418Z,0.90
2024-01-05T08:57:28.505Z,0.57
2024-01-05T08:59:56.595Z,0.75
2024-01-05T09:02:26.144Z,0.70
2024-01-05T09:04:54.253Z,0.60
2024-01-05T09:07:22.317Z,0.85
2024-01-05T09:09:50.321Z,0.50
2024-01-05T09:12:18.467Z,0.50
2024-01-05T09:14:46.529Z,0.90
2024-01-05T09:17:14.620Z,0.85
2024-01-05T09:19:44.705Z,0.98
2024-01-05T09:22:13.126Z,0.50
2024-01-05T09:24:41.397Z,0.65
2024-01-05T09:27:09.522Z,0.80
2024-01-05T09:29:37.780Z,1.35
2024-01-05T09:32:06.475Z,0.82
2024-01-05T09:34:34.598Z,0.70
2024-01-05T09:37:04.208Z,0.50
2024-01-05T09:39:32.719Z,0.55
2024-01-05T09:42:00.929Z,0.70
2024-01-05T09:44:29.534Z,0.70
2024-01-05T09:46:59.203Z,0.60
2024-01-05T09:49:27.830Z,0.80
2024-01-05T09:51:58.205Z,0.80
2024-01-05T09:54:27.757Z,0.68
2024-01-05T09:56:55.975Z,0.70
2024-01-05T09:59:25.224Z,0.82
2024-01-05T10:01:53.502Z,0.90
2024-01-05T10:04:21.735Z,0.88
2024-01-05T10:07:02.639Z,1.10
2024-01-05T10:09:32.960Z,0.80
2024-01-05T10:12:01.106Z,0.77
2024-01-05T10:14:30.596Z,1.00
2024-01-05T10:17:10.137Z,0.70
2024-01-05T10:19:40.652Z,0.80
2024-01-05T10:22:12.727Z,1.35
2024-01-05T10:24:43.482Z,0.95
2024-01-05T10:27:13.354Z,1.15
2024-01-05T10:29:44.206Z,1.60
2024-01-05T10:32:14.041Z,0.82
2024-01-05T10:34:43.290Z,1.00
2024-01-05T10:37:12.078Z,0.68
2024-01-05T10:39:47.163Z,0.77
2024-01-05T10:42:23.522Z,0.75
2024-01-05T10:44:53.720Z,1.20
2024-01-05T10:47:22.719Z,0.88
2024-01-05T10:49:52.493Z,1.00
2024-01-05T10:52:21.523Z,1.00
2024-01-05T10:54:52.850Z,1.05
2024-01-05T10:57:22.058Z,1.33
2024-01-05T10:59:51.533Z,1.02
2024-01-05T11:02:23.524Z,1.00
2024-01-05T11:05:01.056Z,1.02
2024-01-05T11:07:34.712Z,0.70
2024-01-05T11:10:14.890Z,1.20
2024-01-05T11:13:04.742Z,1.38
2024-01-05T11:15:48.866Z,0.90
2024-01-05T11:18:47.162Z,1.15
2024-01-05T11:21:17.817Z,0.80
2024-01-05T11:23:46.634Z,1.08
2024-01-05T11:26:36.505Z,0.88
2024-01-05T11:29:05.177Z,1.00
2024-01-05T11:31:51.729Z,0.73
2024-01-05T11:34:33.001Z,1.00
2024-01-05T11:39:46.682Z,1.10
2024-01-05T11:42:34.325Z,1.30
2024-01-05T11:45:04.056Z,1.20
2024-01-05T11:47:45.792Z,1.52
2024-01-05T11:50:31.739Z,1.15
2024-01-05T11:53:14.105Z,1.30
2024-01-05T11:55:49.662Z,1.40
2024-01-05T11:58:20.304Z,1.63
2024-01-05T12:00:49.594Z,1.65
2024-01-05T12:03:20.798Z,1.75
2024-01-05T12:05:53.153Z,1.55
2024-01-05T12:08:21.560Z,1.35
2024-01-05T12:10:54.091Z,1.30
2024-01-05T12:13:26.035Z,0.90
2024-01-05T12:16:00.890Z,1.65
2024-01-05T12:18:37.497Z,2.25
2024-01-05T12:21:08.821Z,1.73
2024-01-05T12:23:38.546Z,2.35
2024-01-05T12:26:07.806Z,1.65
2024-01-05T12:28:38.499Z,1.50
2024-01-05T12:31:08.736Z,2.08
2024-01-05T12:33:39.350Z,1.23
2024-01-05T12:36:11.162Z,1.73
2024-01-05T12:38:40.029Z,1.42
2024-01-05T12:41:09.623Z,1.17
2024-01-05T12:43:39.361Z,1.45
2024-01-05T12:46:07.472Z,1.33
2024-01-05T12:48:35.843Z,1.50
2024-01-05T12:51:08.028Z,1.40
2024-01-05T12:53:36.379Z,1.50
2024-01-05T12:56:09.152Z,1.40
2024-01-05T12:58:42.397Z,1.80
2024-01-05T13:01:18.215Z,1.60
2024-01-05T13:03:53.817Z,1.48
2024-01-05T13:06:23.052Z,1.50
2024-01-05T13:08:51.449Z,1.95
2024-01-05T13:11:21.053Z,1.33
2024-01-05T13:13:51.597Z,1.85
2024-01-05T13:20:29.996Z,1.80
2024-01-05T13:22:59.799Z,1.83
2024-01-05T13:25:27.978Z,1.88
2024-01-05T13:27:56.065Z,1.75
2024-01-05T13:30:25.660Z,2.13
2024-01-05T13:32:53.872Z,2.42
2024-01-05T13:35:22.193Z,1.45
2024-01-05T13:37:50.223Z,2.30
2024-01-05T13:40:18.425Z,2.10
2024-01-05T13:42:46.414Z,1.77
2024-01-05T13:45:14.472Z,1.95
2024-01-05T13:47:43.959Z,1.92
2024-01-05T13:50:12.012Z,2.15
2024-01-05T13:52:40.256Z,1.90
2024-01-05T13:55:09.028Z,1.73
2024-01-05T13:57:37.053Z,1.95
2024-01-05T14:00:07.459Z,1.80
2024-01-05T14:02:36.408Z,1.77
2024-01-05T14:05:06.555Z,2.13
2024-01-05T14:07:34.718Z,2.63
2024-01-05T14:10:03.867Z,1.90
2024-01-05T14:12:32.690Z,2.45
2024-01-05T14:15:01.177Z,2.78
2024-01-05T14:17:34.705Z,2.40
2024-01-05T14:23:01.759Z,1.98
2024-01-05T14:25:34.700Z,2.20
2024-01-05T14:28:02.733Z,2.03
2024-01-05T14:30:30.857Z,2.45
2024-01-05T14:32:59.220Z,1.70
2024-01-05T14:35:27.266Z,2.22
2024-01-05T14:37:56.629Z,1.80
2024-01-05T14:40:25.027Z,2.58
2024-01-05T14:42:55.981Z,2.30
2024-01-05T14:45:25.394Z,2.25
2024-01-05T14:47:55.736Z,2.35
2024-01-05T14:50:23.857Z,2.33
2024-01-05T14:52:59.566Z,1.92
2024-01-05T14:55:33.653Z,1.92
2024-01-05T14:58:02.142Z,1.92
2024-01-05T15:00:33.735Z,2.15
2024-01-05T15:03:04.989Z,1.92
2024-01-05T15:05:33.243Z,1.95
2024-01-05T15:08:03.169Z,2.40
2024-01-05T15:10:32.934Z,1.70
2024-01-05T15:13:02.614Z,1.88
2024-01-05T15:15:31.535Z,1.60
2024-01-05T15:18:00.048Z,1.92
2024-01-05T15:20:28.292Z,1.60
2024-01-05T15:22:56.353Z,2.13
2024-01-05T15:25:24.380Z,2.30
2024-01-05T15:27:55.706Z,2.10
2024-01-05T15:30:26.005Z,1.77
2024-01-05T15:32:54.413Z,2.05
2024-01-05T15:35:23.057Z,2.10
2024-01-05T15:37:51.400Z,2.08
2024-01-05T15:42:50.762Z,2.47
2024-01-05T15:45:19.224Z,2.13
2024-01-05T15:47:49.127Z,1.85
2024-01-05T15:50:17.426Z,2.35
2024-01-05T15:52:45.420Z,2.25
2024-01-05T15:55:15.055Z,2.40
2024-01-05T15:57:43.305Z,1.85
2024-01-05T16:00:12.294Z,2.78
2024-01-05T16:05:57.007Z,2.20
2024-01-05T16:08:25.221Z,2.13
2024-01-05T16:10:53.276Z,1.88
2024-01-05T16:13:21.293Z,2.13
2024-01-05T16:16:40.325Z,2.47
2024-01-05T16:19:08.844Z,2.40
2024-01-05T16:21:38.486Z,1.90
2024-01-05T16:24:07.871Z,2.42
2024-01-05T16:26:36.275Z,2.33
2024-01-05T16:32:03.179Z,2.28
2024-01-05T16:34:31.536Z,2.47
2024-01-05T16:37:01.026Z,2.60
2024-01-05T16:40:11.237Z,2.90
2024-01-05T16:42:39.494Z,2.17
2024-01-05T16:45:09.864Z,2.58
2024-01-05T16:47:38.207Z,2.25
2024-01-05T16:50:06.820Z,2.08
2024-01-05T16:53:44.279Z,2.72
2024-01-05T16:56:15.288Z,2.40
2024-01-05T16:58:44.438Z,2.03
2024-01-05T17:01:13.150Z,3.15
2024-01-05T17:03:41.490Z,2.47
2024-01-05T17:06:27.927Z,2.80
2024-01-05T17:08:56.459Z,3.00
2024-01-05T17:11:27.007Z,2.45
2024-01-05T17:13:59.450Z,2.90
2024-01-05T17:16:55.782Z,2.63
2024-01-05T17:19:23.864Z,2.33
2024-01-05T17:21:52.947Z,2.40
2024-01-05T17:24:21.864Z,3.42
2024-01-05T17:26:51.428Z,3.08
2024-01-05T17:29:19.543Z,2.65
2024-01-05T17:32:02.203Z,2.75
2024-01-05T17:34:30.212Z,2.90
2024-01-05T17:37:01.401Z,3.03
2024-01-05T17:39:29.526Z,3.67
2024-01-05T17:41:58.863Z,2.72
2024-01-05T17:59:12.292Z,4.78
2024-01-05T18:01:48.043Z,4.93
2024-01-05T18:04:17.215Z,13.23
2024-01-05T18:06:46.106Z,3.78
2024-01-05T18:09:14.481Z,3.40
2024-01-05T18:11:47.398Z,5.20
2024-01-05T18:14:19.984Z,8.38
2024-01-05T18:19:18.545Z,56.92
2024-01-05T18:21:48.541Z,96.50
2024-01-05T18:24:32.441Z,32.25
2024-01-05T18:27:20.979Z,5.10
2024-01-05T18:29:49.109Z,6.10
2024-01-05T18:32:18.509Z,6.10
2024-01-05T18:34:48.657Z,5.15
2024-01-05T18:40:42.178Z,4.80
2024-01-05T18:43:14.340Z,5.53
2024-01-05T18:45:42.460Z,5.95
2024-01-05T18:48:49.610Z,4.63
2024-01-05T18:51:22.037Z,4.00
2024-01-05T18:53:50.223Z,4.65
2024-01-05T18:56:18.397Z,4.00
2024-01-05T18:58:46.527Z,4.90
2024-01-05T19:01:29.532Z,4.85
2024-01-05T19:03:58.344Z,5.20
2024-01-05T19:06:28.174Z,4.78
2024-01-05T19:08:56.378Z,5.18
2024-01-05T19:11:24.855Z,5.07
2024-01-05T19:13:53.072Z,5.47
2024-01-05T19:16:22.128Z,5.25
2024-01-05T19:18:53.193Z,5.80
2024-01-05T19:21:21.291Z,5.88
2024-01-05T19:23:50.685Z,5.28
2024-01-05T19:26:41.292Z,5.40
2024-01-05T19:29:15.834Z,3.85
2024-01-05T19:31:44.718Z,4.28
2024-01-05T19:34:13.526Z,3.60
2024-01-05T19:36:45.269Z,4.15
2024-01-05T19:39:31.428Z,3.70
2024-01-05T19:42:00.702Z,4.10
2024-01-05T19:44:28.724Z,3.90
2024-01-05T19:46:56.838Z,3.55
2024-01-05T19:49:25.006Z,3.55
2024-01-05T19:52:49.954Z,4.38
2024-01-05T19:55:20.414Z,3.80
2024-01-05T19:57:50.529Z,4.43
2024-01-05T20:00:19.201Z,4.22
2024-01-05T20:06:21.003Z,4.20
2024-01-05T20:08:49.616Z,5.05
2024-01-05T20:11:19.781Z,5.55
2024-01-05T20:13:47.812Z,4.85
2024-01-05T20:16:37.268Z,5.13
2024-01-05T20:19:07.915Z,5.82
2024-01-05T20:21:36.441Z,5.18
2024-01-05T20:24:05.051Z,4.97
2024-01-05T20:26:35.856Z,4.70
2024-01-05T20:29:04.084Z,5.13
2024-01-05T20:31:33.734Z,5.05
2024-01-05T20:34:02.451Z,5.13
2024-01-05T20:36:30.628Z,4.78
2024-01-05T20:40:33.643Z,6.10
2024-01-05T20:43:03.496Z,5.43
2024-01-05T20:45:31.566Z,5.28
2024-01-05T20:47:59.816Z,5.22
2024-01-05T20:53:17.745Z,5.30
2024-01-05T20:55:46.471Z,5.80
2024-01-05T20:58:15.930Z,5.70
2024-01-05T21:00:44.028Z,5.13
2024-01-05T21:03:12.075Z,5.00
2024-01-05T21:05:41.036Z,6.03
2024-01-05T21:08:09.132Z,5.07
2024-01-05T21:10:37.162Z,5.35
2024-01-05T21:13:05.634Z,4.50
2024-01-05T21:15:35.060Z,5.20
2024-01-05T21:18:03.137Z,4.60
2024-01-05T21:20:31.657Z,5.63
2024-01-05T21:23:01.637Z,5.30
2024-01-05T21:25:30.703Z,5.55
2024-01-05T21:27:59.310Z,4.28
2024-01-05T21:30:47.412Z,5.82
2024-01-05T21:33:44.990Z,5.05
2024-01-05T21:36:13.901Z,5.20
2024-01-05T21:38:42.112Z,5.70
2024-01-05T21:41:10.176Z,5.57
2024-01-05T21:44:31.562Z,5.32
2024-01-05T21:46:32.916Z,5.53
2024-01-05T21:49:02.361Z,5.07
2024-01-05T21:51:33.403Z,5.18
2024-01-05T21:54:01.937Z,5.88
2024-01-05T21:56:29.995Z,5.15
2024-01-05T21:58:58.101Z,5.78
2024-01-05T22:01:26.204Z,6.10
2024-01-05T22:03:54.371Z,5.30
2024-01-05T22:06:24.561Z,6.55
2024-01-05T22:08:54.875Z,8.18
2024-01-05T22:11:23.141Z,5.97
2024-01-05T22:13:51.296Z,5.63
2024-01-05T22:16:19.598Z,5.80
2024-01-05T22:18:47.942Z,7.57
2024-01-05T22:21:16.163Z,7.82
2024-01-05T22:23:46.961Z,7.78
2024-01-05T22:26:20.442Z,6.72
2024-01-05T22:28:50.209Z,8.02
2024-01-05T22:31:18.476Z,8.50
2024-01-05T22:33:47.203Z,8.10
2024-01-05T22:36:16.561Z,7.57
2024-01-05T22:38:48.246Z,7.80
2024-01-05T22:41:16.313Z,9.02
2024-01-05T22:43:47.230Z,9.27
2024-01-05T22:46:17.448Z,9.23
2024-01-05T22:48:47.179Z,8.70
2024-01-05T22:51:25.633Z,9.20
2024-01-05T22:53:55.211Z,9.48
2024-01-05T22:56:23.374Z,10.10
2024-01-05T22:58:51.443Z,10.65
2024-01-05T23:01:23.411Z,10.45
2024-01-05T23:03:53.355Z,10.73
2024-01-05T23:06:21.986Z,10.07
2024-01-05T23:08:53.392Z,11.15
2024-01-05T23:11:23.147Z,11.32
2024-01-05T23:13:55.140Z,11.60
2024-01-05T23:16:23.128Z,11.35
2024-01-05T23:18:51.862Z,12.05
2024-01-05T23:21:19.939Z,10.95
2024-01-05T23:23:49.215Z,11.57
2024-01-05T23:26:18.353Z,10.90
2024-01-05T23:28:50.557Z,10.73
2024-01-05T23:31:20.930Z,10.80
2024-01-05T23:34:04.217Z,11.52
2024-01-05T23:36:38.873Z,10.45
2024-01-05T23:39:06.969Z,11.82
2024-01-05T23:41:34.963Z,11.57
2024-01-05T23:44:04.764Z,11.43
2024-01-05T23:46:32.858Z,12.45
2024-01-05T23:49:00.959Z,12.45
2024-01-05T23:51:29.064Z,12.57
2024-01-05T23:53:57.417Z,11.57
2024-01-05T23:56:28.075Z,12.45
2024-01-05T23:58:56.116Z,12.48
